createdAt,value
2019-02-25T00:06:15.181Z,34.55
2019-02-25T00:26:14.599Z,34.71
2019-02-25T00:46:24.061Z,35.61
2019-02-25T01:06:33.509Z,39.63
2019-02-25T01:26:42.881Z,51.71
2019-02-25T01:46:52.362Z,40.16
2019-02-25T02:07:01.934Z,45.73
2019-02-25T02:27:11.337Z,45.43
2019-02-25T02:47:20.947Z,42.50
2019-02-25T03:07:30.431Z,55.85
2019-02-25T03:27:39.932Z,35.41
2019-02-25T03:47:49.536Z,32.21
2019-02-25T04:07:58.975Z,32.69
2019-02-25T04:28:08.457Z,42.63
2019-02-25T04:48:17.956Z,29.49
2019-02-25T05:08:29.965Z,31.23
2019-02-25T05:28:31.741Z,28.37
2019-02-25T05:48:40.833Z,31.10
2019-02-25T06:08:40.360Z,28.50
2019-02-25T06:28:49.893Z,27.09
2019-02-25T06:48:59.410Z,34.16
2019-02-25T07:09:11.272Z,30.91
2019-02-25T07:29:10.883Z,29.17
2019-02-25T07:49:20.491Z,29.12
2019-02-25T08:09:32.292Z,22.85
2019-02-25T08:29:31.751Z,21.06
2019-02-25T08:49:41.300Z,20.36
2019-02-25T09:09:50.955Z,18.89
2019-02-25T09:30:00.399Z,20.09
2019-02-25T09:50:12.324Z,16.28
2019-02-25T10:10:11.785Z,15.64
2019-02-25T10:30:21.304Z,13.80
2019-02-25T10:50:31.586Z,15.17
2019-02-25T11:10:39.929Z,15.96
2019-02-25T11:30:51.378Z,14.26
2019-02-25T11:50:58.533Z,13.86
2019-02-25T12:11:08.721Z,13.53
2019-02-25T12:31:16.942Z,13.67
2019-02-25T12:51:26.348Z,15.30
2019-02-25T13:11:36.309Z,14.91
2019-02-25T13:31:45.745Z,15.78
2019-02-25T13:51:55.363Z,15.70
2019-02-25T14:12:04.914Z,16.33
2019-02-25T14:32:15.334Z,14.37
2019-02-25T14:52:26.855Z,14.25
2019-02-25T15:12:29.093Z,14.79
2019-02-25T15:32:25.952Z,13.56
2019-02-25T15:52:39.540Z,13.59
2019-02-25T16:12:31.442Z,13.36
2019-02-25T16:32:40.126Z,13.79
2019-02-25T16:52:49.189Z,13.22
2019-02-25T17:13:02.843Z,13.74
2019-02-25T17:33:03.908Z,16.64
2019-02-25T17:53:03.039Z,13.08
2019-02-25T18:13:16.958Z,14.03
2019-02-25T18:33:17.830Z,13.87
2019-02-25T18:53:27.080Z,17.82
2019-02-25T19:13:38.975Z,14.21
2019-02-25T19:33:38.735Z,13.68
2019-02-25T20:14:02.148Z,15.11
2019-02-25T20:34:06.098Z,16.79
2019-02-25T20:54:05.584Z,16.05
2019-02-25T21:14:15.213Z,16.48
2019-02-25T21:34:26.568Z,14.05
2019-02-25T21:54:35.949Z,21.40
2019-02-25T22:14:35.500Z,14.77
2019-02-25T22:34:44.951Z,16.41
2019-02-25T22:54:54.670Z,13.48
2019-02-25T23:15:06.299Z,13.84
2019-02-25T23:35:09.462Z,14.45
2019-02-25T23:55:16.724Z,14.29
